sensor_id;sensor_type;location;lat;lon;timestamp;P1;durP1;ratioP1;P2;durP2;ratioP2
21675;SDS011;10999;51.332;9.458;2023-05-17T00:00:27;6.38;;;1.48;;
21675;SDS011;10999;51.332;9.458;2023-05-17T00:02:54;5.50;;;1.75;;
21675;SDS011;10999;51.332;9.458;2023-05-17T00:05:21;5.22;;;1.70;;
21675;SDS011;10999;51.332;9.458;2023-05-17T00:07:48;9.07;;;2.40;;
21675;SDS011;10999;51.332;9.458;2023-05-17T00:10:15;6.93;;;1.80;;
21675;SDS011;10999;51.332;9.458;2023-05-17T00:12:42;5.50;;;1.55;;
21675;SDS011;10999;51.332;9.458;2023-05-17T00:15:09;4.13;;;1.65;;
21675;SDS011;10999;51.332;9.458;2023-05-17T00:17:35;5.88;;;2.08;;
21675;SDS011;10999;51.332;9.458;2023-05-17T00:20:03;6.32;;;1.65;;
21675;SDS011;10999;51.332;9.458;2023-05-17T00:22:31;7.32;;;1.70;;
21675;SDS011;10999;51.332;9.458;2023-05-17T00:24:57;5.40;;;1.67;;
21675;SDS011;10999;51.332;9.458;2023-05-17T00:27:26;5.68;;;1.80;;
21675;SDS011;10999;51.332;9.458;2023-05-17T00:29:53;6.70;;;1.85;;
21675;SDS011;10999;51.332;9.458;2023-05-17T00:32:20;4.00;;;1.30;;
21675;SDS011;10999;51.332;9.458;2023-05-17T00:34:46;8.00;;;2.03;;
21675;SDS011;10999;51.332;9.458;2023-05-17T00:37:13;5.03;;;1.60;;
21675;SDS011;10999;51.332;9.458;2023-05-17T00:39:40;5.40;;;1.83;;
21675;SDS011;10999;51.332;9.458;2023-05-17T00:42:07;4.78;;;1.70;;
21675;SDS011;10999;51.332;9.458;2023-05-17T00:44:34;7.45;;;2.38;;
21675;SDS011;10999;51.332;9.458;2023-05-17T00:47:01;5.88;;;2.20;;
21675;SDS011;10999;51.332;9.458;2023-05-17T00:49:28;6.80;;;2.28;;
21675;SDS011;10999;51.332;9.458;2023-05-17T00:51:55;5.88;;;2.35;;
21675;SDS011;10999;51.332;9.458;2023-05-17T00:54:21;5.65;;;2.10;;
21675;SDS011;10999;51.332;9.458;2023-05-17T00:56:49;6.85;;;2.60;;
21675;SDS011;10999;51.332;9.458;2023-05-17T00:59:15;6.93;;;2.35;;
21675;SDS011;10999;51.332;9.458;2023-05-17T01:01:43;8.10;;;2.80;;
21675;SDS011;10999;51.332;9.458;2023-05-17T01:04:09;6.88;;;2.25;;
21675;SDS011;10999;51.332;9.458;2023-05-17T01:06:36;7.20;;;2.42;;
21675;SDS011;10999;51.332;9.458;2023-05-17T01:09:03;7.30;;;2.65;;
21675;SDS011;10999;51.332;9.458;2023-05-17T01:20:44;6.63;;;2.40;;
21675;SDS011;10999;51.332;9.458;2023-05-17T01:25:56;5.00;;;1.83;;
21675;SDS011;10999;51.332;9.458;2023-05-17T01:28:44;6.18;;;1.83;;
21675;SDS011;10999;51.332;9.458;2023-05-17T01:31:14;6.93;;;1.85;;
21675;SDS011;10999;51.332;9.458;2023-05-17T01:33:42;5.65;;;1.85;;
21675;SDS011;10999;51.332;9.458;2023-05-17T01:36:09;5.85;;;1.77;;
21675;SDS011;10999;51.332;9.458;2023-05-17T01:38:36;6.60;;;1.73;;
21675;SDS011;10999;51.332;9.458;2023-05-17T01:41:11;7.03;;;1.90;;
21675;SDS011;10999;51.332;9.458;2023-05-17T01:46:18;3.92;;;1.77;;
21675;SDS011;10999;51.332;9.458;2023-05-17T01:55:00;7.13;;;1.88;;
21675;SDS011;10999;51.332;9.458;2023-05-17T01:57:36;5.32;;;1.95;;
21675;SDS011;10999;51.332;9.458;2023-05-17T02:00:05;6.07;;;1.90;;
21675;SDS011;10999;51.332;9.458;2023-05-17T02:02:34;7.18;;;1.58;;
21675;SDS011;10999;51.332;9.458;2023-05-17T02:05:01;4.63;;;1.70;;
21675;SDS011;10999;51.332;9.458;2023-05-17T02:07:29;5.97;;;2.13;;
21675;SDS011;10999;51.332;9.458;2023-05-17T02:09:56;6.25;;;1.63;;
21675;SDS011;10999;51.332;9.458;2023-05-17T02:12:23;8.68;;;1.90;;
21675;SDS011;10999;51.332;9.458;2023-05-17T02:14:50;4.88;;;1.60;;
21675;SDS011;10999;51.332;9.458;2023-05-17T02:17:17;4.40;;;1.48;;
21675;SDS011;10999;51.332;9.458;2023-05-17T02:19:44;5.90;;;1.85;;
21675;SDS011;10999;51.332;9.458;2023-05-17T02:22:10;6.85;;;1.70;;
21675;SDS011;10999;51.332;9.458;2023-05-17T02:24:37;5.85;;;2.17;;
21675;SDS011;10999;51.332;9.458;2023-05-17T02:27:04;4.43;;;1.90;;
21675;SDS011;10999;51.332;9.458;2023-05-17T02:29:35;7.18;;;1.63;;
21675;SDS011;10999;51.332;9.458;2023-05-17T02:32:02;5.15;;;1.80;;
21675;SDS011;10999;51.332;9.458;2023-05-17T02:34:29;5.75;;;2.08;;
21675;SDS011;10999;51.332;9.458;2023-05-17T02:36:55;6.63;;;1.95;;
21675;SDS011;10999;51.332;9.458;2023-05-17T02:39:22;7.25;;;2.03;;
21675;SDS011;10999;51.332;9.458;2023-05-17T02:41:49;4.95;;;1.55;;
21675;SDS011;10999;51.332;9.458;2023-05-17T02:44:16;6.60;;;2.08;;
21675;SDS011;10999;51.332;9.458;2023-05-17T02:46:42;5.20;;;1.58;;
21675;SDS011;10999;51.332;9.458;2023-05-17T02:49:09;5.40;;;1.65;;
21675;SDS011;10999;51.332;9.458;2023-05-17T02:51:36;6.13;;;1.77;;
21675;SDS011;10999;51.332;9.458;2023-05-17T02:54:03;6.07;;;1.63;;
21675;SDS011;10999;51.332;9.458;2023-05-17T02:56:30;5.20;;;1.85;;
21675;SDS011;10999;51.332;9.458;2023-05-17T02:58:56;5.05;;;1.60;;
21675;SDS011;10999;51.332;9.458;2023-05-17T03:01:26;4.95;;;2.00;;
21675;SDS011;10999;51.332;9.458;2023-05-17T03:03:53;6.03;;;1.90;;
21675;SDS011;10999;51.332;9.458;2023-05-17T03:06:20;5.28;;;1.55;;
21675;SDS011;10999;51.332;9.458;2023-05-17T03:08:47;4.47;;;1.67;;
21675;SDS011;10999;51.332;9.458;2023-05-17T03:11:14;5.55;;;1.58;;
21675;SDS011;10999;51.332;9.458;2023-05-17T03:13:40;5.35;;;1.85;;
21675;SDS011;10999;51.332;9.458;2023-05-17T03:16:07;5.50;;;2.00;;
21675;SDS011;10999;51.332;9.458;2023-05-17T03:18:34;5.80;;;2.30;;
21675;SDS011;10999;51.332;9.458;2023-05-17T03:21:01;6.68;;;2.30;;
21675;SDS011;10999;51.332;9.458;2023-05-17T03:23:28;5.35;;;1.80;;
21675;SDS011;10999;51.332;9.458;2023-05-17T03:25:55;6.47;;;1.88;;
21675;SDS011;10999;51.332;9.458;2023-05-17T03:28:22;11.55;;;3.05;;
21675;SDS011;10999;51.332;9.458;2023-05-17T03:30:48;8.50;;;2.20;;
21675;SDS011;10999;51.332;9.458;2023-05-17T03:33:15;5.90;;;2.28;;
21675;SDS011;10999;51.332;9.458;2023-05-17T03:35:43;7.20;;;2.65;;
21675;SDS011;10999;51.332;9.458;2023-05-17T03:38:12;6.82;;;1.90;;
21675;SDS011;10999;51.332;9.458;2023-05-17T03:40:38;6.65;;;2.20;;
21675;SDS011;10999;51.332;9.458;2023-05-17T03:43:06;8.27;;;2.35;;
21675;SDS011;10999;51.332;9.458;2023-05-17T03:45:33;7.05;;;2.20;;
21675;SDS011;10999;51.332;9.458;2023-05-17T03:48:00;6.35;;;2.30;;
21675;SDS011;10999;51.332;9.458;2023-05-17T03:50:27;7.65;;;2.33;;
21675;SDS011;10999;51.332;9.458;2023-05-17T03:52:53;7.15;;;2.20;;
21675;SDS011;10999;51.332;9.458;2023-05-17T03:55:20;5.45;;;2.38;;
21675;SDS011;10999;51.332;9.458;2023-05-17T03:57:47;6.80;;;2.50;;
21675;SDS011;10999;51.332;9.458;2023-05-17T04:00:14;7.80;;;2.33;;
21675;SDS011;10999;51.332;9.458;2023-05-17T04:02:50;6.05;;;2.63;;
21675;SDS011;10999;51.332;9.458;2023-05-17T04:05:17;8.65;;;2.72;;
21675;SDS011;10999;51.332;9.458;2023-05-17T04:07:44;8.18;;;3.25;;
21675;SDS011;10999;51.332;9.458;2023-05-17T04:10:11;9.10;;;2.90;;
21675;SDS011;10999;51.332;9.458;2023-05-17T04:12:38;8.60;;;2.20;;
21675;SDS011;10999;51.332;9.458;2023-05-17T04:15:05;9.60;;;2.65;;
21675;SDS011;10999;51.332;9.458;2023-05-17T04:17:32;7.38;;;2.55;;
21675;SDS011;10999;51.332;9.458;2023-05-17T04:19:59;6.45;;;2.40;;
21675;SDS011;10999;51.332;9.458;2023-05-17T04:22:26;6.43;;;2.53;;
21675;SDS011;10999;51.332;9.458;2023-05-17T04:24:52;8.25;;;3.05;;
21675;SDS011;10999;51.332;9.458;2023-05-17T04:27:19;10.10;;;3.47;;
21675;SDS011;10999;51.332;9.458;2023-05-17T04:29:47;10.82;;;3.83;;
21675;SDS011;10999;51.332;9.458;2023-05-17T04:32:13;10.55;;;3.33;;
21675;SDS011;10999;51.332;9.458;2023-05-17T04:34:40;9.63;;;3.55;;
21675;SDS011;10999;51.332;9.458;2023-05-17T04:37:08;10.73;;;3.83;;
21675;SDS011;10999;51.332;9.458;2023-05-17T04:39:35;10.70;;;4.03;;
21675;SDS011;10999;51.332;9.458;2023-05-17T04:42:02;13.48;;;4.47;;
21675;SDS011;10999;51.332;9.458;2023-05-17T04:44:28;14.50;;;5.13;;
21675;SDS011;10999;51.332;9.458;2023-05-17T04:46:55;9.60;;;4.00;;
21675;SDS011;10999;51.332;9.458;2023-05-17T04:49:22;10.80;;;4.05;;
21675;SDS011;10999;51.332;9.458;2023-05-17T04:51:51;19.40;;;4.95;;
21675;SDS011;10999;51.332;9.458;2023-05-17T04:54:18;14.48;;;4.60;;
21675;SDS011;10999;51.332;9.458;2023-05-17T04:56:53;10.15;;;4.20;;
21675;SDS011;10999;51.332;9.458;2023-05-17T04:59:20;12.60;;;4.47;;
21675;SDS011;10999;51.332;9.458;2023-05-17T05:01:47;14.32;;;4.50;;
21675;SDS011;10999;51.332;9.458;2023-05-17T05:04:13;10.82;;;4.45;;
21675;SDS011;10999;51.332;9.458;2023-05-17T05:06:40;12.57;;;4.13;;
21675;SDS011;10999;51.332;9.458;2023-05-17T05:09:09;9.30;;;3.88;;
21675;SDS011;10999;51.332;9.458;2023-05-17T05:11:35;11.73;;;4.50;;
21675;SDS011;10999;51.332;9.458;2023-05-17T05:14:02;9.32;;;4.03;;
21675;SDS011;10999;51.332;9.458;2023-05-17T05:16:29;12.73;;;4.03;;
21675;SDS011;10999;51.332;9.458;2023-05-17T05:18:56;12.68;;;3.42;;
21675;SDS011;10999;51.332;9.458;2023-05-17T05:21:23;11.82;;;3.92;;
21675;SDS011;10999;51.332;9.458;2023-05-17T05:23:50;19.38;;;6.57;;
21675;SDS011;10999;51.332;9.458;2023-05-17T05:26:17;9.48;;;3.58;;
21675;SDS011;10999;51.332;9.458;2023-05-17T05:28:44;11.98;;;3.20;;
21675;SDS011;10999;51.332;9.458;2023-05-17T05:31:13;8.27;;;3.58;;
21675;SDS011;10999;51.332;9.458;2023-05-17T05:33:40;9.38;;;3.15;;
21675;SDS011;10999;51.332;9.458;2023-05-17T05:36:08;8.30;;;2.63;;
21675;SDS011;10999;51.332;9.458;2023-05-17T05:38:35;9.57;;;3.28;;
21675;SDS011;10999;51.332;9.458;2023-05-17T05:41:02;11.82;;;3.50;;
21675;SDS011;10999;51.332;9.458;2023-05-17T05:43:29;11.65;;;3.17;;
21675;SDS011;10999;51.332;9.458;2023-05-17T05:45:56;12.18;;;3.08;;
21675;SDS011;10999;51.332;9.458;2023-05-17T05:48:23;10.48;;;3.05;;
21675;SDS011;10999;51.332;9.458;2023-05-17T05:50:50;9.70;;;3.40;;
21675;SDS011;10999;51.332;9.458;2023-05-17T05:53:17;10.55;;;3.08;;
21675;SDS011;10999;51.332;9.458;2023-05-17T05:55:45;7.80;;;2.67;;
21675;SDS011;10999;51.332;9.458;2023-05-17T05:58:12;13.35;;;3.60;;
21675;SDS011;10999;51.332;9.458;2023-05-17T06:00:39;9.80;;;2.63;;
21675;SDS011;10999;51.332;9.458;2023-05-17T06:03:07;10.32;;;2.72;;
21675;SDS011;10999;51.332;9.458;2023-05-17T06:05:33;11.05;;;2.78;;
21675;SDS011;10999;51.332;9.458;2023-05-17T06:08:02;9.45;;;2.83;;
21675;SDS011;10999;51.332;9.458;2023-05-17T06:10:30;10.40;;;2.45;;
21675;SDS011;10999;51.332;9.458;2023-05-17T06:12:57;9.35;;;2.33;;
21675;SDS011;10999;51.332;9.458;2023-05-17T06:15:25;9.20;;;2.30;;
21675;SDS011;10999;51.332;9.458;2023-05-17T06:17:52;8.35;;;2.67;;
21675;SDS011;10999;51.332;9.458;2023-05-17T06:20:19;10.50;;;2.70;;
21675;SDS011;10999;51.332;9.458;2023-05-17T06:22:46;10.10;;;2.53;;
21675;SDS011;10999;51.332;9.458;2023-05-17T06:25:13;9.63;;;3.38;;
21675;SDS011;10999;51.332;9.458;2023-05-17T06:27:40;10.55;;;2.78;;
21675;SDS011;10999;51.332;9.458;2023-05-17T06:30:08;7.38;;;2.20;;
21675;SDS011;10999;51.332;9.458;2023-05-17T06:32:35;8.80;;;2.40;;
21675;SDS011;10999;51.332;9.458;2023-05-17T06:35:02;7.32;;;2.42;;
21675;SDS011;10999;51.332;9.458;2023-05-17T06:37:29;10.10;;;2.35;;
21675;SDS011;10999;51.332;9.458;2023-05-17T06:40:01;11.55;;;2.42;;
21675;SDS011;10999;51.332;9.458;2023-05-17T06:42:41;12.25;;;2.17;;
21675;SDS011;10999;51.332;9.458;2023-05-17T06:45:08;11.60;;;2.33;;
21675;SDS011;10999;51.332;9.458;2023-05-17T06:47:35;8.88;;;2.47;;
21675;SDS011;10999;51.332;9.458;2023-05-17T06:50:03;7.60;;;1.77;;
21675;SDS011;10999;51.332;9.458;2023-05-17T06:52:30;7.07;;;2.33;;
21675;SDS011;10999;51.332;9.458;2023-05-17T06:54:57;12.38;;;2.38;;
21675;SDS011;10999;51.332;9.458;2023-05-17T06:57:24;13.20;;;2.83;;
21675;SDS011;10999;51.332;9.458;2023-05-17T06:59:51;9.52;;;2.00;;
21675;SDS011;10999;51.332;9.458;2023-05-17T07:02:18;10.13;;;2.40;;
21675;SDS011;10999;51.332;9.458;2023-05-17T07:04:48;9.18;;;1.90;;
21675;SDS011;10999;51.332;9.458;2023-05-17T07:07:15;8.32;;;1.83;;
21675;SDS011;10999;51.332;9.458;2023-05-17T07:09:43;8.38;;;2.30;;
21675;SDS011;10999;51.332;9.458;2023-05-17T07:12:10;14.25;;;2.63;;
21675;SDS011;10999;51.332;9.458;2023-05-17T07:14:37;12.10;;;2.35;;
21675;SDS011;10999;51.332;9.458;2023-05-17T07:17:04;7.85;;;1.90;;
21675;SDS011;10999;51.332;9.458;2023-05-17T07:19:31;10.57;;;2.88;;
21675;SDS011;10999;51.332;9.458;2023-05-17T07:22:03;6.28;;;1.70;;
21675;SDS011;10999;51.332;9.458;2023-05-17T07:24:30;9.63;;;1.63;;
21675;SDS011;10999;51.332;9.458;2023-05-17T07:26:57;7.50;;;1.80;;
21675;SDS011;10999;51.332;9.458;2023-05-17T07:29:24;11.18;;;2.65;;
21675;SDS011;10999;51.332;9.458;2023-05-17T07:31:50;7.57;;;2.13;;
21675;SDS011;10999;51.332;9.458;2023-05-17T07:34:17;8.50;;;1.35;;
21675;SDS011;10999;51.332;9.458;2023-05-17T07:36:44;7.53;;;2.00;;
21675;SDS011;10999;51.332;9.458;2023-05-17T07:39:11;7.80;;;1.80;;
21675;SDS011;10999;51.332;9.458;2023-05-17T07:41:41;8.65;;;1.60;;
21675;SDS011;10999;51.332;9.458;2023-05-17T07:44:09;9.00;;;2.60;;
21675;SDS011;10999;51.332;9.458;2023-05-17T07:46:36;9.65;;;2.00;;
21675;SDS011;10999;51.332;9.458;2023-05-17T07:49:03;8.07;;;2.47;;
21675;SDS011;10999;51.332;9.458;2023-05-17T07:51:36;9.13;;;2.42;;
21675;SDS011;10999;51.332;9.458;2023-05-17T07:54:04;6.03;;;1.90;;
21675;SDS011;10999;51.332;9.458;2023-05-17T07:56:31;7.80;;;2.03;;
21675;SDS011;10999;51.332;9.458;2023-05-17T07:59:00;6.22;;;1.77;;
21675;SDS011;10999;51.332;9.458;2023-05-17T08:01:27;7.95;;;1.65;;
21675;SDS011;10999;51.332;9.458;2023-05-17T08:03:54;7.07;;;1.58;;
21675;SDS011;10999;51.332;9.458;2023-05-17T08:06:24;7.55;;;1.80;;
21675;SDS011;10999;51.332;9.458;2023-05-17T08:08:51;8.68;;;2.42;;
21675;SDS011;10999;51.332;9.458;2023-05-17T08:11:20;10.90;;;1.98;;
21675;SDS011;10999;51.332;9.458;2023-05-17T08:13:47;5.32;;;1.75;;
21675;SDS011;10999;51.332;9.458;2023-05-17T08:16:14;12.13;;;1.95;;
21675;SDS011;10999;51.332;9.458;2023-05-17T08:18:41;7.13;;;1.65;;
21675;SDS011;10999;51.332;9.458;2023-05-17T08:21:09;7.00;;;1.40;;
21675;SDS011;10999;51.332;9.458;2023-05-17T08:23:36;10.88;;;1.92;;
21675;SDS011;10999;51.332;9.458;2023-05-17T08:26:03;12.18;;;1.65;;
21675;SDS011;10999;51.332;9.458;2023-05-17T08:28:30;8.05;;;1.75;;
21675;SDS011;10999;51.332;9.458;2023-05-17T08:30:57;10.10;;;1.90;;
21675;SDS011;10999;51.332;9.458;2023-05-17T08:33:24;10.27;;;1.70;;
21675;SDS011;10999;51.332;9.458;2023-05-17T08:35:51;8.07;;;1.48;;
21675;SDS011;10999;51.332;9.458;2023-05-17T08:38:20;11.38;;;1.77;;
21675;SDS011;10999;51.332;9.458;2023-05-17T08:40:54;10.52;;;1.80;;
21675;SDS011;10999;51.332;9.458;2023-05-17T08:43:22;7.57;;;1.75;;
21675;SDS011;10999;51.332;9.458;2023-05-17T08:45:52;11.25;;;1.95;;
21675;SDS011;10999;51.332;9.458;2023-05-17T08:48:23;5.40;;;1.27;;
21675;SDS011;10999;51.332;9.458;2023-05-17T08:50:56;8.98;;;1.92;;
21675;SDS011;10999;51.332;9.458;2023-05-17T08:53:25;8.40;;;2.28;;
21675;SDS011;10999;51.332;9.458;2023-05-17T08:55:54;10.48;;;1.60;;
21675;SDS011;10999;51.332;9.458;2023-05-17T08:58:26;9.80;;;1.65;;
21675;SDS011;10999;51.332;9.458;2023-05-17T09:01:06;9.88;;;1.85;;
21675;SDS011;10999;51.332;9.458;2023-05-17T09:03:35;11.23;;;1.83;;
21675;SDS011;10999;51.332;9.458;2023-05-17T09:06:06;6.45;;;1.88;;
21675;SDS011;10999;51.332;9.458;2023-05-17T09:08:35;10.82;;;1.88;;
21675;SDS011;10999;51.332;9.458;2023-05-17T09:11:03;8.60;;;1.95;;
21675;SDS011;10999;51.332;9.458;2023-05-17T09:13:30;7.32;;;2.00;;
21675;SDS011;10999;51.332;9.458;2023-05-17T09:15:57;7.03;;;1.80;;
21675;SDS011;10999;51.332;9.458;2023-05-17T09:18:30;6.15;;;2.53;;
21675;SDS011;10999;51.332;9.458;2023-05-17T09:21:02;7.05;;;1.67;;
21675;SDS011;10999;51.332;9.458;2023-05-17T09:23:32;3.67;;;1.20;;
21675;SDS011;10999;51.332;9.458;2023-05-17T09:26:05;7.47;;;1.40;;
21675;SDS011;10999;51.332;9.458;2023-05-17T09:28:37;6.78;;;2.30;;
21675;SDS011;10999;51.332;9.458;2023-05-17T09:31:07;7.88;;;1.98;;
21675;SDS011;10999;51.332;9.458;2023-05-17T09:33:42;7.78;;;2.20;;
21675;SDS011;10999;51.332;9.458;2023-05-17T09:36:18;6.63;;;1.73;;
21675;SDS011;10999;51.332;9.458;2023-05-17T09:41:31;8.52;;;1.63;;
21675;SDS011;10999;51.332;9.458;2023-05-17T09:43:59;5.90;;;1.38;;
21675;SDS011;10999;51.332;9.458;2023-05-17T09:46:27;5.53;;;1.30;;
21675;SDS011;10999;51.332;9.458;2023-05-17T09:49:15;3.88;;;1.15;;
21675;SDS011;10999;51.332;9.458;2023-05-17T09:51:43;7.93;;;1.60;;
21675;SDS011;10999;51.332;9.458;2023-05-17T09:54:12;6.20;;;1.55;;
21675;SDS011;10999;51.332;9.458;2023-05-17T09:56:39;8.25;;;1.60;;
21675;SDS011;10999;51.332;9.458;2023-05-17T09:59:10;6.05;;;1.35;;
21675;SDS011;10999;51.332;9.458;2023-05-17T10:01:39;6.63;;;1.38;;
21675;SDS011;10999;51.332;9.458;2023-05-17T10:04:08;6.97;;;1.40;;
21675;SDS011;10999;51.332;9.458;2023-05-17T10:06:38;5.93;;;1.38;;
21675;SDS011;10999;51.332;9.458;2023-05-17T10:09:11;7.72;;;1.52;;
21675;SDS011;10999;51.332;9.458;2023-05-17T10:11:40;10.35;;;1.73;;
21675;SDS011;10999;51.332;9.458;2023-05-17T10:14:17;9.02;;;1.50;;
21675;SDS011;10999;51.332;9.458;2023-05-17T10:16:53;7.85;;;1.58;;
21675;SDS011;10999;51.332;9.458;2023-05-17T10:19:21;5.95;;;1.33;;
21675;SDS011;10999;51.332;9.458;2023-05-17T10:21:52;8.63;;;1.67;;
21675;SDS011;10999;51.332;9.458;2023-05-17T10:24:27;5.80;;;1.75;;
21675;SDS011;10999;51.332;9.458;2023-05-17T10:26:57;6.18;;;1.45;;
21675;SDS011;10999;51.332;9.458;2023-05-17T10:29:24;5.97;;;1.80;;
21675;SDS011;10999;51.332;9.458;2023-05-17T10:31:51;7.72;;;1.30;;
21675;SDS011;10999;51.332;9.458;2023-05-17T10:34:19;6.63;;;1.42;;
21675;SDS011;10999;51.332;9.458;2023-05-17T10:36:47;6.32;;;1.13;;
21675;SDS011;10999;51.332;9.458;2023-05-17T10:39:15;8.55;;;1.77;;
21675;SDS011;10999;51.332;9.458;2023-05-17T10:41:44;9.88;;;1.83;;
21675;SDS011;10999;51.332;9.458;2023-05-17T10:44:40;8.45;;;1.55;;
21675;SDS011;10999;51.332;9.458;2023-05-17T10:47:07;4.88;;;1.38;;
21675;SDS011;10999;51.332;9.458;2023-05-17T10:49:35;7.72;;;1.98;;
21675;SDS011;10999;51.332;9.458;2023-05-17T10:52:10;7.03;;;1.00;;
21675;SDS011;10999;51.332;9.458;2023-05-17T10:54:39;6.22;;;1.38;;
21675;SDS011;10999;51.332;9.458;2023-05-17T10:57:08;7.43;;;1.65;;
21675;SDS011;10999;51.332;9.458;2023-05-17T10:59:55;4.43;;;1.30;;
21675;SDS011;10999;51.332;9.458;2023-05-17T11:02:23;6.57;;;1.55;;
21675;SDS011;10999;51.332;9.458;2023-05-17T11:04:51;5.35;;;1.50;;
21675;SDS011;10999;51.332;9.458;2023-05-17T11:07:21;4.65;;;1.00;;
21675;SDS011;10999;51.332;9.458;2023-05-17T11:12:43;4.88;;;1.50;;
21675;SDS011;10999;51.332;9.458;2023-05-17T11:15:13;5.35;;;1.23;;
21675;SDS011;10999;51.332;9.458;2023-05-17T11:22:48;3.63;;;1.10;;
21675;SDS011;10999;51.332;9.458;2023-05-17T11:25:20;4.47;;;0.90;;
21675;SDS011;10999;51.332;9.458;2023-05-17T11:27:58;7.85;;;1.50;;
21675;SDS011;10999;51.332;9.458;2023-05-17T11:30:29;6.30;;;1.35;;
21675;SDS011;10999;51.332;9.458;2023-05-17T11:35:27;6.47;;;1.60;;
21675;SDS011;10999;51.332;9.458;2023-05-17T11:38:16;7.45;;;1.20;;
21675;SDS011;10999;51.332;9.458;2023-05-17T11:40:47;5.82;;;1.27;;
21675;SDS011;10999;51.332;9.458;2023-05-17T11:43:19;6.10;;;1.95;;
21675;SDS011;10999;51.332;9.458;2023-05-17T11:45:52;8.30;;;2.03;;
21675;SDS011;10999;51.332;9.458;2023-05-17T11:48:23;5.63;;;1.70;;
21675;SDS011;10999;51.332;9.458;2023-05-17T11:50:52;11.43;;;1.80;;
21675;SDS011;10999;51.332;9.458;2023-05-17T11:53:20;4.93;;;1.27;;
21675;SDS011;10999;51.332;9.458;2023-05-17T11:55:51;4.80;;;1.40;;
21675;SDS011;10999;51.332;9.458;2023-05-17T11:58:25;5.03;;;1.30;;
21675;SDS011;10999;51.332;9.458;2023-05-17T12:00:53;4.68;;;1.33;;
21675;SDS011;10999;51.332;9.458;2023-05-17T12:03:24;6.03;;;1.30;;
21675;SDS011;10999;51.332;9.458;2023-05-17T12:08:34;3.20;;;0.90;;
21675;SDS011;10999;51.332;9.458;2023-05-17T12:11:03;4.82;;;1.30;;
21675;SDS011;10999;51.332;9.458;2023-05-17T12:13:31;5.40;;;1.13;;
21675;SDS011;10999;51.332;9.458;2023-05-17T12:16:00;6.28;;;1.05;;
21675;SDS011;10999;51.332;9.458;2023-05-17T12:18:35;5.90;;;1.30;;
21675;SDS011;10999;51.332;9.458;2023-05-17T12:21:05;5.15;;;1.08;;
21675;SDS011;10999;51.332;9.458;2023-05-17T12:23:35;6.22;;;1.27;;
21675;SDS011;10999;51.332;9.458;2023-05-17T12:26:07;7.22;;;1.42;;
21675;SDS011;10999;51.332;9.458;2023-05-17T12:28:44;5.70;;;1.10;;
21675;SDS011;10999;51.332;9.458;2023-05-17T12:31:21;6.18;;;1.35;;
21675;SDS011;10999;51.332;9.458;2023-05-17T12:34:05;5.88;;;1.30;;
21675;SDS011;10999;51.332;9.458;2023-05-17T12:36:38;7.97;;;1.40;;
21675;SDS011;10999;51.332;9.458;2023-05-17T12:39:09;4.43;;;1.00;;
21675;SDS011;10999;51.332;9.458;2023-05-17T12:41:42;6.13;;;1.30;;
21675;SDS011;10999;51.332;9.458;2023-05-17T12:44:12;6.00;;;1.13;;
21675;SDS011;10999;51.332;9.458;2023-05-17T12:46:42;5.38;;;1.30;;
21675;SDS011;10999;51.332;9.458;2023-05-17T12:49:38;6.85;;;1.05;;
21675;SDS011;10999;51.332;9.458;2023-05-17T12:52:37;6.40;;;1.60;;
21675;SDS011;10999;51.332;9.458;2023-05-17T12:55:11;6.95;;;1.45;;
21675;SDS011;10999;51.332;9.458;2023-05-17T12:57:51;7.43;;;1.30;;
21675;SDS011;10999;51.332;9.458;2023-05-17T13:00:19;5.18;;;1.42;;
21675;SDS011;10999;51.332;9.458;2023-05-17T13:02:47;5.57;;;1.35;;
21675;SDS011;10999;51.332;9.458;2023-05-17T13:05:20;10.15;;;2.28;;
21675;SDS011;10999;51.332;9.458;2023-05-17T13:10:46;6.72;;;1.45;;
21675;SDS011;10999;51.332;9.458;2023-05-17T13:13:31;6.97;;;1.85;;
21675;SDS011;10999;51.332;9.458;2023-05-17T13:15:59;4.05;;;1.30;;
21675;SDS011;10999;51.332;9.458;2023-05-17T13:18:26;5.75;;;1.70;;
21675;SDS011;10999;51.332;9.458;2023-05-17T13:21:02;4.72;;;1.08;;
21675;SDS011;10999;51.332;9.458;2023-05-17T13:23:47;6.35;;;1.30;;
21675;SDS011;10999;51.332;9.458;2023-05-17T13:26:36;5.68;;;1.63;;
21675;SDS011;10999;51.332;9.458;2023-05-17T13:29:03;6.70;;;1.55;;
21675;SDS011;10999;51.332;9.458;2023-05-17T13:31:32;3.00;;;1.23;;
21675;SDS011;10999;51.332;9.458;2023-05-17T13:33:59;5.93;;;1.20;;
21675;SDS011;10999;51.332;9.458;2023-05-17T13:36:29;6.68;;;1.38;;
21675;SDS011;10999;51.332;9.458;2023-05-17T13:39:01;6.40;;;1.15;;
21675;SDS011;10999;51.332;9.458;2023-05-17T13:41:45;8.43;;;1.67;;
21675;SDS011;10999;51.332;9.458;2023-05-17T13:44:27;6.18;;;1.70;;
21675;SDS011;10999;51.332;9.458;2023-05-17T13:46:54;5.95;;;1.55;;
21675;SDS011;10999;51.332;9.458;2023-05-17T13:49:47;6.32;;;1.60;;
21675;SDS011;10999;51.332;9.458;2023-05-17T13:52:28;5.28;;;1.13;;
21675;SDS011;10999;51.332;9.458;2023-05-17T13:54:56;6.50;;;1.30;;
21675;SDS011;10999;51.332;9.458;2023-05-17T13:57:40;4.25;;;1.30;;
21675;SDS011;10999;51.332;9.458;2023-05-17T14:00:07;6.75;;;1.20;;
21675;SDS011;10999;51.332;9.458;2023-05-17T14:02:39;5.70;;;1.58;;
21675;SDS011;10999;51.332;9.458;2023-05-17T14:05:10;8.82;;;2.25;;
21675;SDS011;10999;51.332;9.458;2023-05-17T14:07:37;5.25;;;1.40;;
21675;SDS011;10999;51.332;9.458;2023-05-17T14:10:16;6.75;;;1.45;;
21675;SDS011;10999;51.332;9.458;2023-05-17T14:12:56;6.22;;;1.65;;
21675;SDS011;10999;51.332;9.458;2023-05-17T14:15:23;5.00;;;1.75;;
21675;SDS011;10999;51.332;9.458;2023-05-17T14:17:52;8.85;;;1.33;;
21675;SDS011;10999;51.332;9.458;2023-05-17T14:23:17;6.93;;;1.63;;
21675;SDS011;10999;51.332;9.458;2023-05-17T14:25:43;7.80;;;1.90;;
21675;SDS011;10999;51.332;9.458;2023-05-17T14:28:14;9.43;;;2.22;;
21675;SDS011;10999;51.332;9.458;2023-05-17T14:31:11;7.72;;;1.58;;
21675;SDS011;10999;51.332;9.458;2023-05-17T14:33:38;6.00;;;1.35;;
21675;SDS011;10999;51.332;9.458;2023-05-17T14:36:05;8.57;;;1.42;;
21675;SDS011;10999;51.332;9.458;2023-05-17T14:38:32;7.47;;;1.85;;
21675;SDS011;10999;51.332;9.458;2023-05-17T14:41:00;7.10;;;1.60;;
21675;SDS011;10999;51.332;9.458;2023-05-17T14:43:29;7.30;;;1.65;;
21675;SDS011;10999;51.332;9.458;2023-05-17T14:55:40;6.75;;;1.60;;
21675;SDS011;10999;51.332;9.458;2023-05-17T14:58:07;7.35;;;1.40;;
21675;SDS011;10999;51.332;9.458;2023-05-17T15:00:40;7.28;;;1.63;;
21675;SDS011;10999;51.332;9.458;2023-05-17T15:03:13;6.63;;;1.95;;
21675;SDS011;10999;51.332;9.458;2023-05-17T15:05:44;5.93;;;2.75;;
21675;SDS011;10999;51.332;9.458;2023-05-17T15:08:11;8.00;;;1.65;;
21675;SDS011;10999;51.332;9.458;2023-05-17T15:10:39;6.80;;;1.60;;
21675;SDS011;10999;51.332;9.458;2023-05-17T15:13:07;5.85;;;1.58;;
21675;SDS011;10999;51.332;9.458;2023-05-17T15:15:34;5.70;;;1.95;;
21675;SDS011;10999;51.332;9.458;2023-05-17T15:18:01;7.50;;;1.88;;
21675;SDS011;10999;51.332;9.458;2023-05-17T15:20:28;9.73;;;1.98;;
21675;SDS011;10999;51.332;9.458;2023-05-17T15:22:55;7.32;;;1.95;;
21675;SDS011;10999;51.332;9.458;2023-05-17T15:25:22;5.07;;;1.83;;
21675;SDS011;10999;51.332;9.458;2023-05-17T15:27:49;6.55;;;1.70;;
21675;SDS011;10999;51.332;9.458;2023-05-17T15:30:16;5.55;;;1.95;;
21675;SDS011;10999;51.332;9.458;2023-05-17T15:32:43;7.47;;;1.75;;
21675;SDS011;10999;51.332;9.458;2023-05-17T15:35:10;7.63;;;1.70;;
21675;SDS011;10999;51.332;9.458;2023-05-17T15:37:37;10.15;;;1.75;;
21675;SDS011;10999;51.332;9.458;2023-05-17T15:40:13;7.88;;;1.80;;
21675;SDS011;10999;51.332;9.458;2023-05-17T15:42:42;7.57;;;1.90;;
21675;SDS011;10999;51.332;9.458;2023-05-17T15:45:08;9.02;;;1.75;;
21675;SDS011;10999;51.332;9.458;2023-05-17T15:47:36;8.30;;;1.50;;
21675;SDS011;10999;51.332;9.458;2023-05-17T15:50:09;7.72;;;1.52;;